Flight Track Log - Related Links

Times and Time Zones

All times are in EDT time to prevent confusion due to time zone crossing. See the SWA3319 flight status page for this flight to view local times or setup timezone preferences in your user account.

Time Position Orientation Groundspeed Altitude Reporting Facility
EDT Latitude Longitude Course Direction KTS MPH feet Rate Location/Type
Fri 07:43:36 AM 41.7833 -87.7667 90° East 130 150 2,000  Level Chicago TRACON
Fri 07:44:31 AM 41.8167 -87.7667 360° North 223 257 3,000 1,513 Climbing Chicago TRACON
Fri 07:45:31 AM 41.8167 -87.6667 90° East 269 310 4,900 2,375 Climbing Chicago TRACON
Fri 07:46:07 AM 41.8108 -87.6183 99° East 258 297 6,800 3,959 Climbing Chicago Center
Fri 07:47:08 AM 41.8017 -87.5028 96° East 302 348 11,300 4,488 Climbing Chicago Center
Fri 07:48:10 AM 41.7911 -87.3786 96° East 330 380 16,000 4,341 Climbing Chicago Center
Fri 07:49:00 AM 41.7500 -86.9916 90° East  Level FlightAware Approximate
Fri 07:49:11 AM 41.8014 -87.2433 84° East 364 419 20,200  Level Chicago Center
Fri 07:50:12 AM 41.8136 -87.1000 83° East 384 442 23,000 1,463 Climbing Chicago Center
Fri 07:51:14 AM 41.8239 -86.9550 85° East 392 451 23,200 1,756 Climbing Chicago Center
Fri 07:52:15 AM 41.8386 -86.7667 84° East 425 489 26,600 2,780 Climbing Chicago Center
Fri 07:53:17 AM 41.8508 -86.6167 84° East 437 503 28,900 1,854 Climbing Chicago Center
Fri 07:54:18 AM 41.8628 -86.4536 84° East 439 505 30,400 1,033 Climbing Chicago Center
Fri 07:55:19 AM 41.8756 -86.2936 84° East 433 498 31,000 1,268 Climbing Chicago Center
Fri 07:56:21 AM 41.8869 -86.1361 84° East 426 490 33,000 976 Climbing Chicago Center
Fri 07:57:22 AM 41.8975 -85.9753 85° East 432 497 33,000  Level Chicago Center
Fri 07:58:24 AM 41.9114 -85.7822 84° East 432 497 33,000  Level Chicago Center
Fri 07:59:25 AM 41.9225 -85.6231 85° East 426 490 33,000  Level Chicago Center
Fri 08:00:38 AM 41.9328 -85.4625 85° East 427 491 33,000  Level Chicago Center
Fri 08:01:28 AM 41.9442 -85.2997 85° East 432 497 33,000  Level Chicago Center
Fri 08:01:45 AM 41.9478 -85.2658 82° East 427 491 33,000  Level Cleveland Center
Fri 08:02:45 AM 41.9581 -85.1100 85° East 422 486 33,000  Level Cleveland Center
Fri 08:03:45 AM 41.9686 -84.9461 85° East 422 486 33,000  Level Cleveland Center
Fri 08:04:45 AM 41.9767 -84.7900 86° East 422 486 33,000  Level Cleveland Center
Fri 08:05:45 AM 41.9864 -84.6342 85° East 422 486 33,000  Level Cleveland Center
Fri 08:06:45 AM 41.9939 -84.4753 86° East 422 486 33,000  Level Cleveland Center
Fri 08:07:45 AM 42.0053 -84.3194 84° East 422 486 33,000  Level Cleveland Center
Fri 08:08:45 AM 42.0086 -84.1492 88° East 422 486 33,000 -450 Level Cleveland Center
Fri 08:09:45 AM 42.0178 -83.9931 85° East 422 486 32,100 -1,750 Descending Cleveland Center
Fri 08:10:45 AM 42.0264 -83.8369 86° East 422 486 29,500 -2,500 Descending Cleveland Center
Fri 08:11:45 AM 42.0350 -83.6781 86° East 422 486 27,100 -2,300 Descending Cleveland Center
Fri 08:12:45 AM 42.0431 -83.5247 86° East 416 479 24,900 -1,800 Descending Cleveland Center
Fri 08:13:45 AM 42.0383 -83.3817 92° East 400 460 23,500 -1,200 Descending Cleveland Center
Fri 08:14:45 AM 42.0272 -83.2389 96° East 394 453 22,500 -950 Descending Cleveland Center
Fri 08:15:45 AM 42.0117 -83.0956 98° East 388 447 21,600 -950 Descending Cleveland Center
Fri 08:16:45 AM 41.9978 -82.9581 98° East 388 447 20,600 -1,032 Descending Cleveland Center
Fri 08:17:18 AM 41.9911 -82.8881 97° East 371 427 20,000 -1,000 Descending Cleveland Center
Fri 08:17:45 AM 41.9839 -82.8236 99° East 381 438 19,600 -1,448 Descending Cleveland Center
Fri 08:18:45 AM 41.9697 -82.6889 98° East 369 425 17,900 -1,750 Descending Cleveland Center
Fri 08:19:45 AM 41.9575 -82.5572 97° East 363 418 16,100 -1,800 Descending Cleveland Center
Fri 08:20:45 AM 41.9261 -82.4475 111° Southeast 339 390 14,300 -1,950 Descending Cleveland Center
Fri 08:21:45 AM 41.8903 -82.3347 113° Southeast 325 374 12,200 -2,000 Descending Cleveland Center
Fri 08:22:45 AM 41.8544 -82.2222 113° Southeast 320 368 10,300 -1,100 Descending Cleveland Center
Fri 08:23:45 AM 41.8078 -82.1292 124° Southeast 315 362 10,000 -200 Descending Cleveland Center
Fri 08:24:45 AM 41.7442 -82.0608 141° Southeast 295 339 9,900 -1,000 Descending Cleveland Center
Fri 08:25:45 AM 41.6803 -81.9928 141° Southeast 295 339 8,000 -2,000 Descending Cleveland Center
Fri 08:26:00 AM 41.6639 -81.9783 147° Southeast 287 330 7,400 -1,000 Descending Cleveland Center
Fri 08:26:45 AM 41.6228 -81.9219 134° Southeast 290 334 7,000 -400 Descending Cleveland Center
Fri 08:27:00 AM 41.6147 -81.8969 113° Southeast 298 343 7,000 -632 Level Cleveland Center
Fri 08:28:01 AM 41.5847 -81.7936 111° Southeast 304 350 6,200 -1,240 Descending Cleveland Center
Fri 08:29:01 AM 41.5647 -81.6933 105° East 289 333 4,500 -1,934 Descending Cleveland Center
Fri 08:30:02 AM 41.5106 -81.6978 184° South 204 235 2,300 -1,230 Descending Cleveland Center
Fri 08:31:03 AM 41.4767 -81.7500 229° Southwest 160 184 2,000 -149 Descending Cleveland Center
Fri 08:32:03 AM 41.4556 -81.7856 232° Southwest 113 130 2,000 -298 Level Cleveland Center
Fri 08:33:04 AM 41.4322 -81.8183 226° Southwest 114 131 1,400 -590 Descending Cleveland Center
Fri 08:35:00 AM 41.4000 -81.8500 228° Southwest  Level FlightAware Approximate
Fri 08:42:00 AM 41.4094 -81.8547 228° Southwest  Level Estimated

Login

Don't have an account? Register now (free) for customized features, flight alerts, and more!